sensor_id;sensor_type;location;lat;lon;timestamp;temperature;humidity
32201;DHT22;18701;45.588;5.288;2023-05-28T00:00:24;19.90;99.90
32201;DHT22;18701;45.588;5.288;2023-05-28T00:02:49;19.80;99.90
32201;DHT22;18701;45.588;5.288;2023-05-28T00:05:15;19.90;99.90
32201;DHT22;18701;45.588;5.288;2023-05-28T00:07:40;19.90;99.90
32201;DHT22;18701;45.588;5.288;2023-05-28T00:10:07;19.90;99.90
32201;DHT22;18701;45.588;5.288;2023-05-28T00:12:33;20.00;99.90
32201;DHT22;18701;45.588;5.288;2023-05-28T00:14:58;19.90;99.90
32201;DHT22;18701;45.588;5.288;2023-05-28T00:17:25;19.90;99.90
32201;DHT22;18701;45.588;5.288;2023-05-28T00:19:50;19.90;99.90
32201;DHT22;18701;45.588;5.288;2023-05-28T00:22:16;19.90;99.90
32201;DHT22;18701;45.588;5.288;2023-05-28T00:24:42;19.70;99.90
32201;DHT22;18701;45.588;5.288;2023-05-28T00:27:07;19.70;99.90
32201;DHT22;18701;45.588;5.288;2023-05-28T00:29:33;19.80;99.90
32201;DHT22;18701;45.588;5.288;2023-05-28T00:31:58;19.80;99.90
32201;DHT22;18701;45.588;5.288;2023-05-28T00:34:24;19.90;99.90
32201;DHT22;18701;45.588;5.288;2023-05-28T00:36:51;19.90;99.90
32201;DHT22;18701;45.588;5.288;2023-05-28T00:39:20;19.90;99.90
32201;DHT22;18701;45.588;5.288;2023-05-28T00:41:46;19.80;99.90
32201;DHT22;18701;45.588;5.288;2023-05-28T00:44:12;19.60;99.90
32201;DHT22;18701;45.588;5.288;2023-05-28T00:46:43;19.50;99.90
32201;DHT22;18701;45.588;5.288;2023-05-28T00:49:10;19.40;99.90
32201;DHT22;18701;45.588;5.288;2023-05-28T00:51:36;19.50;99.90
32201;DHT22;18701;45.588;5.288;2023-05-28T00:54:03;19.60;99.90
32201;DHT22;18701;45.588;5.288;2023-05-28T00:56:29;19.60;99.90
32201;DHT22;18701;45.588;5.288;2023-05-28T00:58:57;19.40;99.90
32201;DHT22;18701;45.588;5.288;2023-05-28T01:01:26;19.40;99.90
32201;DHT22;18701;45.588;5.288;2023-05-28T01:03:52;19.50;99.90
32201;DHT22;18701;45.588;5.288;2023-05-28T01:06:18;19.50;99.90
32201;DHT22;18701;45.588;5.288;2023-05-28T01:08:47;19.30;99.90
32201;DHT22;18701;45.588;5.288;2023-05-28T01:11:18;19.20;99.90
32201;DHT22;18701;45.588;5.288;2023-05-28T01:13:45;19.20;99.90
32201;DHT22;18701;45.588;5.288;2023-05-28T01:16:12;19.10;99.90
32201;DHT22;18701;45.588;5.288;2023-05-28T01:18:39;19.20;99.90
32201;DHT22;18701;45.588;5.288;2023-05-28T01:21:06;19.20;99.90
32201;DHT22;18701;45.588;5.288;2023-05-28T01:23:41;19.20;99.90
32201;DHT22;18701;45.588;5.288;2023-05-28T01:26:09;19.20;99.90
32201;DHT22;18701;45.588;5.288;2023-05-28T01:28:35;19.10;99.90
32201;DHT22;18701;45.588;5.288;2023-05-28T01:31:00;19.00;99.90
32201;DHT22;18701;45.588;5.288;2023-05-28T01:33:26;19.00;99.90
32201;DHT22;18701;45.588;5.288;2023-05-28T01:35:54;19.00;99.90
32201;DHT22;18701;45.588;5.288;2023-05-28T01:38:21;18.90;99.90
32201;DHT22;18701;45.588;5.288;2023-05-28T01:40:48;18.90;99.90
32201;DHT22;18701;45.588;5.288;2023-05-28T01:43:14;18.90;99.90
32201;DHT22;18701;45.588;5.288;2023-05-28T01:45:40;18.90;99.90
32201;DHT22;18701;45.588;5.288;2023-05-28T01:48:06;18.90;99.90
32201;DHT22;18701;45.588;5.288;2023-05-28T01:50:32;18.90;99.90
32201;DHT22;18701;45.588;5.288;2023-05-28T01:52:59;18.90;99.90
32201;DHT22;18701;45.588;5.288;2023-05-28T01:55:26;18.80;99.90
32201;DHT22;18701;45.588;5.288;2023-05-28T01:57:51;18.60;99.90
32201;DHT22;18701;45.588;5.288;2023-05-28T02:00:17;18.70;99.90
32201;DHT22;18701;45.588;5.288;2023-05-28T02:02:43;18.60;99.90
32201;DHT22;18701;45.588;5.288;2023-05-28T02:05:09;18.70;99.90
32201;DHT22;18701;45.588;5.288;2023-05-28T02:07:35;18.60;99.90
32201;DHT22;18701;45.588;5.288;2023-05-28T02:10:00;18.80;99.90
32201;DHT22;18701;45.588;5.288;2023-05-28T02:12:26;18.80;99.90
32201;DHT22;18701;45.588;5.288;2023-05-28T02:14:52;18.80;99.90
32201;DHT22;18701;45.588;5.288;2023-05-28T02:17:18;18.50;99.90
32201;DHT22;18701;45.588;5.288;2023-05-28T02:19:44;18.40;99.90
32201;DHT22;18701;45.588;5.288;2023-05-28T02:22:10;18.40;99.90
32201;DHT22;18701;45.588;5.288;2023-05-28T02:24:40;18.60;99.90
32201;DHT22;18701;45.588;5.288;2023-05-28T02:27:07;18.70;99.90
32201;DHT22;18701;45.588;5.288;2023-05-28T02:29:33;18.50;99.90
32201;DHT22;18701;45.588;5.288;2023-05-28T02:32:00;18.50;99.90
32201;DHT22;18701;45.588;5.288;2023-05-28T02:34:26;18.60;99.90
32201;DHT22;18701;45.588;5.288;2023-05-28T02:36:54;18.60;99.90
32201;DHT22;18701;45.588;5.288;2023-05-28T02:39:21;18.60;99.90
32201;DHT22;18701;45.588;5.288;2023-05-28T02:41:47;18.40;99.90
32201;DHT22;18701;45.588;5.288;2023-05-28T02:44:12;18.40;99.90
32201;DHT22;18701;45.588;5.288;2023-05-28T02:46:38;18.20;99.90
32201;DHT22;18701;45.588;5.288;2023-05-28T02:49:03;18.10;99.90
32201;DHT22;18701;45.588;5.288;2023-05-28T02:51:29;18.10;99.90
32201;DHT22;18701;45.588;5.288;2023-05-28T02:53:54;18.20;99.90
32201;DHT22;18701;45.588;5.288;2023-05-28T02:56:20;18.30;99.90
32201;DHT22;18701;45.588;5.288;2023-05-28T02:58:47;18.10;99.90
32201;DHT22;18701;45.588;5.288;2023-05-28T03:01:12;18.00;99.90
32201;DHT22;18701;45.588;5.288;2023-05-28T03:03:38;18.20;99.90
32201;DHT22;18701;45.588;5.288;2023-05-28T03:06:04;18.20;99.90
32201;DHT22;18701;45.588;5.288;2023-05-28T03:08:29;18.20;99.90
32201;DHT22;18701;45.588;5.288;2023-05-28T03:10:55;18.20;99.90
32201;DHT22;18701;45.588;5.288;2023-05-28T03:13:21;18.20;99.90
32201;DHT22;18701;45.588;5.288;2023-05-28T03:15:46;18.10;99.90
32201;DHT22;18701;45.588;5.288;2023-05-28T03:18:12;18.20;99.90
32201;DHT22;18701;45.588;5.288;2023-05-28T03:20:37;18.20;99.90
32201;DHT22;18701;45.588;5.288;2023-05-28T03:23:04;18.10;99.90
32201;DHT22;18701;45.588;5.288;2023-05-28T03:25:30;18.20;99.90
32201;DHT22;18701;45.588;5.288;2023-05-28T03:27:56;18.10;99.90
32201;DHT22;18701;45.588;5.288;2023-05-28T03:30:21;18.00;99.90
32201;DHT22;18701;45.588;5.288;2023-05-28T03:32:48;18.00;99.90
32201;DHT22;18701;45.588;5.288;2023-05-28T03:35:15;18.00;99.90
32201;DHT22;18701;45.588;5.288;2023-05-28T03:37:41;17.80;99.90
32201;DHT22;18701;45.588;5.288;2023-05-28T03:40:07;17.90;99.90
32201;DHT22;18701;45.588;5.288;2023-05-28T03:42:34;17.90;99.90
32201;DHT22;18701;45.588;5.288;2023-05-28T03:45:00;17.90;99.90
32201;DHT22;18701;45.588;5.288;2023-05-28T03:47:26;17.90;99.90
32201;DHT22;18701;45.588;5.288;2023-05-28T03:49:52;17.90;99.90
32201;DHT22;18701;45.588;5.288;2023-05-28T03:52:18;18.00;99.90
32201;DHT22;18701;45.588;5.288;2023-05-28T03:54:44;18.00;99.90
32201;DHT22;18701;45.588;5.288;2023-05-28T03:57:09;18.00;99.90
32201;DHT22;18701;45.588;5.288;2023-05-28T03:59:36;18.00;99.90
32201;DHT22;18701;45.588;5.288;2023-05-28T04:02:02;17.80;99.90
32201;DHT22;18701;45.588;5.288;2023-05-28T04:04:28;17.80;99.90
32201;DHT22;18701;45.588;5.288;2023-05-28T04:06:53;17.70;99.90
32201;DHT22;18701;45.588;5.288;2023-05-28T04:09:19;17.70;99.90
32201;DHT22;18701;45.588;5.288;2023-05-28T04:11:45;17.50;99.90
32201;DHT22;18701;45.588;5.288;2023-05-28T04:14:11;17.60;99.90
32201;DHT22;18701;45.588;5.288;2023-05-28T04:16:36;17.50;99.90
32201;DHT22;18701;45.588;5.288;2023-05-28T04:19:02;17.50;99.90
32201;DHT22;18701;45.588;5.288;2023-05-28T04:21:28;17.40;99.90
32201;DHT22;18701;45.588;5.288;2023-05-28T04:23:54;17.60;99.90
32201;DHT22;18701;45.588;5.288;2023-05-28T04:26:21;17.30;99.90
32201;DHT22;18701;45.588;5.288;2023-05-28T04:28:48;17.40;99.90
32201;DHT22;18701;45.588;5.288;2023-05-28T04:31:13;17.30;99.90
32201;DHT22;18701;45.588;5.288;2023-05-28T04:33:39;17.30;99.90
32201;DHT22;18701;45.588;5.288;2023-05-28T04:36:05;17.30;99.90
32201;DHT22;18701;45.588;5.288;2023-05-28T04:38:34;17.30;99.90
32201;DHT22;18701;45.588;5.288;2023-05-28T04:40:59;17.30;99.90
32201;DHT22;18701;45.588;5.288;2023-05-28T04:43:26;17.30;99.90
32201;DHT22;18701;45.588;5.288;2023-05-28T04:45:52;17.30;99.90
32201;DHT22;18701;45.588;5.288;2023-05-28T04:48:19;17.60;99.90
32201;DHT22;18701;45.588;5.288;2023-05-28T04:50:44;17.60;99.90
32201;DHT22;18701;45.588;5.288;2023-05-28T04:53:10;17.80;99.90
32201;DHT22;18701;45.588;5.288;2023-05-28T04:55:36;17.90;99.90
32201;DHT22;18701;45.588;5.288;2023-05-28T04:58:01;17.80;99.90
32201;DHT22;18701;45.588;5.288;2023-05-28T05:00:27;17.70;99.90
32201;DHT22;18701;45.588;5.288;2023-05-28T05:02:53;17.70;99.90
32201;DHT22;18701;45.588;5.288;2023-05-28T05:05:19;17.90;99.90
32201;DHT22;18701;45.588;5.288;2023-05-28T05:07:45;18.00;99.90
32201;DHT22;18701;45.588;5.288;2023-05-28T05:10:11;18.00;99.90
32201;DHT22;18701;45.588;5.288;2023-05-28T05:12:37;18.00;99.90
32201;DHT22;18701;45.588;5.288;2023-05-28T05:15:04;17.90;99.90
32201;DHT22;18701;45.588;5.288;2023-05-28T05:17:31;17.80;99.90
32201;DHT22;18701;45.588;5.288;2023-05-28T05:19:57;18.00;99.90
32201;DHT22;18701;45.588;5.288;2023-05-28T05:22:23;17.90;99.90
32201;DHT22;18701;45.588;5.288;2023-05-28T05:24:49;17.90;99.90
32201;DHT22;18701;45.588;5.288;2023-05-28T05:27:15;17.90;99.90
32201;DHT22;18701;45.588;5.288;2023-05-28T05:29:40;18.00;99.90
32201;DHT22;18701;45.588;5.288;2023-05-28T05:32:06;18.10;99.90
32201;DHT22;18701;45.588;5.288;2023-05-28T05:34:32;18.20;99.90
32201;DHT22;18701;45.588;5.288;2023-05-28T05:36:58;18.10;99.90
32201;DHT22;18701;45.588;5.288;2023-05-28T05:39:26;18.10;99.90
32201;DHT22;18701;45.588;5.288;2023-05-28T05:41:53;18.20;99.90
32201;DHT22;18701;45.588;5.288;2023-05-28T05:44:18;18.40;99.90
32201;DHT22;18701;45.588;5.288;2023-05-28T05:46:44;18.40;99.90
32201;DHT22;18701;45.588;5.288;2023-05-28T05:49:10;18.50;99.90
32201;DHT22;18701;45.588;5.288;2023-05-28T05:51:35;18.60;99.90
32201;DHT22;18701;45.588;5.288;2023-05-28T05:54:02;18.40;99.90
32201;DHT22;18701;45.588;5.288;2023-05-28T05:56:28;18.40;99.90
32201;DHT22;18701;45.588;5.288;2023-05-28T05:58:54;18.40;99.90
32201;DHT22;18701;45.588;5.288;2023-05-28T06:01:20;18.40;99.90
32201;DHT22;18701;45.588;5.288;2023-05-28T06:03:46;18.50;99.90
32201;DHT22;18701;45.588;5.288;2023-05-28T06:06:12;18.60;99.90
32201;DHT22;18701;45.588;5.288;2023-05-28T06:08:39;18.50;99.90
32201;DHT22;18701;45.588;5.288;2023-05-28T06:11:05;18.80;99.90
32201;DHT22;18701;45.588;5.288;2023-05-28T06:13:31;18.80;99.90
32201;DHT22;18701;45.588;5.288;2023-05-28T06:15:57;18.90;99.90
32201;DHT22;18701;45.588;5.288;2023-05-28T06:18:23;18.90;99.90
32201;DHT22;18701;45.588;5.288;2023-05-28T06:20:49;18.90;99.90
32201;DHT22;18701;45.588;5.288;2023-05-28T06:23:15;19.10;99.90
32201;DHT22;18701;45.588;5.288;2023-05-28T06:25:41;19.10;99.90
32201;DHT22;18701;45.588;5.288;2023-05-28T06:28:09;19.20;99.90
32201;DHT22;18701;45.588;5.288;2023-05-28T06:30:35;19.30;99.90
32201;DHT22;18701;45.588;5.288;2023-05-28T06:33:01;19.30;99.90
32201;DHT22;18701;45.588;5.288;2023-05-28T06:35:26;19.30;99.90
32201;DHT22;18701;45.588;5.288;2023-05-28T06:37:52;19.40;99.90
32201;DHT22;18701;45.588;5.288;2023-05-28T06:40:18;19.50;99.90
32201;DHT22;18701;45.588;5.288;2023-05-28T06:42:44;19.50;99.90
32201;DHT22;18701;45.588;5.288;2023-05-28T06:45:09;19.60;99.90
32201;DHT22;18701;45.588;5.288;2023-05-28T06:47:36;19.60;99.90
32201;DHT22;18701;45.588;5.288;2023-05-28T06:50:02;19.60;99.90
32201;DHT22;18701;45.588;5.288;2023-05-28T06:52:27;19.50;99.90
32201;DHT22;18701;45.588;5.288;2023-05-28T06:54:53;19.70;99.90
32201;DHT22;18701;45.588;5.288;2023-05-28T06:57:20;19.80;99.90
32201;DHT22;18701;45.588;5.288;2023-05-28T06:59:46;19.80;99.90
32201;DHT22;18701;45.588;5.288;2023-05-28T07:02:11;19.70;99.90
32201;DHT22;18701;45.588;5.288;2023-05-28T07:04:37;19.60;99.90
32201;DHT22;18701;45.588;5.288;2023-05-28T07:07:03;19.90;99.90
32201;DHT22;18701;45.588;5.288;2023-05-28T07:09:29;19.80;99.90
32201;DHT22;18701;45.588;5.288;2023-05-28T07:11:55;19.80;99.90
32201;DHT22;18701;45.588;5.288;2023-05-28T07:14:21;20.00;99.90
32201;DHT22;18701;45.588;5.288;2023-05-28T07:16:46;20.00;99.90
32201;DHT22;18701;45.588;5.288;2023-05-28T07:19:12;19.90;99.90
32201;DHT22;18701;45.588;5.288;2023-05-28T07:21:37;20.10;99.90
32201;DHT22;18701;45.588;5.288;2023-05-28T07:24:04;20.30;99.90
32201;DHT22;18701;45.588;5.288;2023-05-28T07:26:31;20.30;99.90
32201;DHT22;18701;45.588;5.288;2023-05-28T07:28:57;20.40;99.90
32201;DHT22;18701;45.588;5.288;2023-05-28T07:31:22;20.40;99.90
32201;DHT22;18701;45.588;5.288;2023-05-28T07:33:49;20.40;99.90
32201;DHT22;18701;45.588;5.288;2023-05-28T07:36:15;20.40;99.90
32201;DHT22;18701;45.588;5.288;2023-05-28T07:38:44;20.60;99.90
32201;DHT22;18701;45.588;5.288;2023-05-28T07:41:10;20.70;99.90
32201;DHT22;18701;45.588;5.288;2023-05-28T07:43:35;20.90;99.90
32201;DHT22;18701;45.588;5.288;2023-05-28T07:46:01;21.00;99.90
32201;DHT22;18701;45.588;5.288;2023-05-28T07:48:27;20.90;99.90
32201;DHT22;18701;45.588;5.288;2023-05-28T07:50:52;21.00;99.90
32201;DHT22;18701;45.588;5.288;2023-05-28T07:53:18;21.10;99.90
32201;DHT22;18701;45.588;5.288;2023-05-28T07:55:44;21.20;99.90
32201;DHT22;18701;45.588;5.288;2023-05-28T07:58:11;21.30;99.90
32201;DHT22;18701;45.588;5.288;2023-05-28T08:00:41;21.30;99.90
32201;DHT22;18701;45.588;5.288;2023-05-28T08:03:07;21.30;99.90
32201;DHT22;18701;45.588;5.288;2023-05-28T08:05:32;21.40;99.90
32201;DHT22;18701;45.588;5.288;2023-05-28T08:07:59;21.40;99.90
32201;DHT22;18701;45.588;5.288;2023-05-28T08:10:25;21.60;99.90
32201;DHT22;18701;45.588;5.288;2023-05-28T08:12:50;21.70;99.90
32201;DHT22;18701;45.588;5.288;2023-05-28T08:15:16;21.60;99.90
32201;DHT22;18701;45.588;5.288;2023-05-28T08:17:42;21.60;99.90
32201;DHT22;18701;45.588;5.288;2023-05-28T08:20:09;21.80;99.90
32201;DHT22;18701;45.588;5.288;2023-05-28T08:22:35;21.80;99.90
32201;DHT22;18701;45.588;5.288;2023-05-28T08:25:01;21.90;99.90
32201;DHT22;18701;45.588;5.288;2023-05-28T08:27:28;22.00;99.90
32201;DHT22;18701;45.588;5.288;2023-05-28T08:29:53;22.10;99.90
32201;DHT22;18701;45.588;5.288;2023-05-28T08:32:19;22.10;99.90
32201;DHT22;18701;45.588;5.288;2023-05-28T08:34:45;22.30;99.90
32201;DHT22;18701;45.588;5.288;2023-05-28T08:37:12;22.40;99.90
32201;DHT22;18701;45.588;5.288;2023-05-28T08:39:38;22.40;99.90
32201;DHT22;18701;45.588;5.288;2023-05-28T08:42:03;22.60;99.90
32201;DHT22;18701;45.588;5.288;2023-05-28T08:44:29;22.60;99.90
32201;DHT22;18701;45.588;5.288;2023-05-28T08:46:55;22.80;99.90
32201;DHT22;18701;45.588;5.288;2023-05-28T08:49:32;22.80;99.90
32201;DHT22;18701;45.588;5.288;2023-05-28T08:52:01;22.80;99.90
32201;DHT22;18701;45.588;5.288;2023-05-28T08:54:30;22.80;99.90
32201;DHT22;18701;45.588;5.288;2023-05-28T08:56:56;22.80;99.90
32201;DHT22;18701;45.588;5.288;2023-05-28T08:59:23;22.90;99.90
32201;DHT22;18701;45.588;5.288;2023-05-28T09:01:51;22.90;99.90
32201;DHT22;18701;45.588;5.288;2023-05-28T09:04:16;23.20;99.90
32201;DHT22;18701;45.588;5.288;2023-05-28T09:06:42;23.30;99.90
32201;DHT22;18701;45.588;5.288;2023-05-28T09:09:08;23.30;99.90
32201;DHT22;18701;45.588;5.288;2023-05-28T09:11:34;23.40;99.90
32201;DHT22;18701;45.588;5.288;2023-05-28T09:14:08;23.60;99.90
32201;DHT22;18701;45.588;5.288;2023-05-28T09:16:34;23.90;99.90
32201;DHT22;18701;45.588;5.288;2023-05-28T09:19:04;24.10;99.90
32201;DHT22;18701;45.588;5.288;2023-05-28T09:21:30;24.30;99.90
32201;DHT22;18701;45.588;5.288;2023-05-28T09:23:59;24.30;99.90
32201;DHT22;18701;45.588;5.288;2023-05-28T09:26:32;24.30;99.90
32201;DHT22;18701;45.588;5.288;2023-05-28T09:28:58;24.50;99.90
32201;DHT22;18701;45.588;5.288;2023-05-28T09:31:31;24.60;99.90
32201;DHT22;18701;45.588;5.288;2023-05-28T09:33:59;24.80;99.90
32201;DHT22;18701;45.588;5.288;2023-05-28T09:36:29;25.00;99.90
32201;DHT22;18701;45.588;5.288;2023-05-28T09:38:55;25.10;99.90
32201;DHT22;18701;45.588;5.288;2023-05-28T09:41:26;25.00;99.90
32201;DHT22;18701;45.588;5.288;2023-05-28T09:44:03;24.90;99.90
32201;DHT22;18701;45.588;5.288;2023-05-28T09:46:30;24.90;99.90
32201;DHT22;18701;45.588;5.288;2023-05-28T09:48:57;25.00;99.90
32201;DHT22;18701;45.588;5.288;2023-05-28T09:51:28;25.00;99.90
32201;DHT22;18701;45.588;5.288;2023-05-28T09:53:58;25.00;99.90
32201;DHT22;18701;45.588;5.288;2023-05-28T09:56:32;25.10;99.90
32201;DHT22;18701;45.588;5.288;2023-05-28T09:59:01;25.10;99.90
32201;DHT22;18701;45.588;5.288;2023-05-28T10:01:38;25.20;99.90
32201;DHT22;18701;45.588;5.288;2023-05-28T10:04:08;25.30;99.90
32201;DHT22;18701;45.588;5.288;2023-05-28T10:06:36;25.40;99.90
32201;DHT22;18701;45.588;5.288;2023-05-28T10:09:03;25.50;99.90
32201;DHT22;18701;45.588;5.288;2023-05-28T10:11:36;25.70;99.90
32201;DHT22;18701;45.588;5.288;2023-05-28T10:14:05;25.70;99.90
32201;DHT22;18701;45.588;5.288;2023-05-28T10:16:32;25.70;99.90
32201;DHT22;18701;45.588;5.288;2023-05-28T10:18:57;26.00;99.90
32201;DHT22;18701;45.588;5.288;2023-05-28T10:21:24;26.10;99.90
32201;DHT22;18701;45.588;5.288;2023-05-28T10:23:49;26.20;99.90
32201;DHT22;18701;45.588;5.288;2023-05-28T10:26:16;26.30;99.90
32201;DHT22;18701;45.588;5.288;2023-05-28T10:28:42;26.20;99.90
32201;DHT22;18701;45.588;5.288;2023-05-28T10:31:09;26.20;99.90
32201;DHT22;18701;45.588;5.288;2023-05-28T10:33:42;26.30;99.90
32201;DHT22;18701;45.588;5.288;2023-05-28T10:36:13;26.30;99.90
32201;DHT22;18701;45.588;5.288;2023-05-28T10:38:57;26.40;99.90
32201;DHT22;18701;45.588;5.288;2023-05-28T10:41:24;26.40;99.90
32201;DHT22;18701;45.588;5.288;2023-05-28T10:43:50;26.30;99.90
32201;DHT22;18701;45.588;5.288;2023-05-28T10:49:14;26.70;99.90
32201;DHT22;18701;45.588;5.288;2023-05-28T10:51:51;26.90;99.90
32201;DHT22;18701;45.588;5.288;2023-05-28T10:57:16;26.80;99.90
32201;DHT22;18701;45.588;5.288;2023-05-28T11:00:00;26.90;99.90
32201;DHT22;18701;45.588;5.288;2023-05-28T11:02:33;27.00;99.90
32201;DHT22;18701;45.588;5.288;2023-05-28T11:05:01;27.00;99.90
32201;DHT22;18701;45.588;5.288;2023-05-28T11:10:00;27.20;99.90
32201;DHT22;18701;45.588;5.288;2023-05-28T11:12:26;27.40;99.90
32201;DHT22;18701;45.588;5.288;2023-05-28T11:14:52;27.30;99.90
32201;DHT22;18701;45.588;5.288;2023-05-28T11:17:18;27.40;99.90
32201;DHT22;18701;45.588;5.288;2023-05-28T11:19:46;27.40;99.90
32201;DHT22;18701;45.588;5.288;2023-05-28T11:22:13;27.70;99.90
32201;DHT22;18701;45.588;5.288;2023-05-28T11:24:59;27.90;99.90
32201;DHT22;18701;45.588;5.288;2023-05-28T11:27:29;27.50;99.90
32201;DHT22;18701;45.588;5.288;2023-05-28T11:29:58;27.80;99.90
32201;DHT22;18701;45.588;5.288;2023-05-28T11:32:25;28.10;99.90
32201;DHT22;18701;45.588;5.288;2023-05-28T11:34:52;27.90;99.90
32201;DHT22;18701;45.588;5.288;2023-05-28T11:37:47;27.70;99.90
32201;DHT22;18701;45.588;5.288;2023-05-28T11:40:14;27.80;99.90
32201;DHT22;18701;45.588;5.288;2023-05-28T11:42:43;27.90;99.90
32201;DHT22;18701;45.588;5.288;2023-05-28T11:45:10;28.00;99.90
32201;DHT22;18701;45.588;5.288;2023-05-28T11:47:37;27.80;99.90
32201;DHT22;18701;45.588;5.288;2023-05-28T11:50:10;27.90;99.90
32201;DHT22;18701;45.588;5.288;2023-05-28T11:52:37;28.10;99.90
32201;DHT22;18701;45.588;5.288;2023-05-28T11:55:03;28.00;99.90
32201;DHT22;18701;45.588;5.288;2023-05-28T11:57:30;27.90;99.90
32201;DHT22;18701;45.588;5.288;2023-05-28T12:00:05;27.80;99.70
32201;DHT22;18701;45.588;5.288;2023-05-28T12:02:44;27.80;99.80
32201;DHT22;18701;45.588;5.288;2023-05-28T12:05:14;28.00;99.90
32201;DHT22;18701;45.588;5.288;2023-05-28T12:07:45;28.40;99.90
32201;DHT22;18701;45.588;5.288;2023-05-28T12:10:13;28.60;99.90
32201;DHT22;18701;45.588;5.288;2023-05-28T12:12:41;28.70;99.70
32201;DHT22;18701;45.588;5.288;2023-05-28T12:15:07;28.90;99.90
32201;DHT22;18701;45.588;5.288;2023-05-28T12:17:38;29.00;99.90
32201;DHT22;18701;45.588;5.288;2023-05-28T12:23:20;29.40;99.80
32201;DHT22;18701;45.588;5.288;2023-05-28T12:25:47;29.40;98.50
32201;DHT22;18701;45.588;5.288;2023-05-28T12:28:15;29.50;99.10
32201;DHT22;18701;45.588;5.288;2023-05-28T12:30:42;29.70;98.90
32201;DHT22;18701;45.588;5.288;2023-05-28T12:33:09;29.70;99.60
32201;DHT22;18701;45.588;5.288;2023-05-28T12:35:35;29.30;99.90
32201;DHT22;18701;45.588;5.288;2023-05-28T12:38:01;28.70;99.90
32201;DHT22;18701;45.588;5.288;2023-05-28T12:40:28;28.10;99.90
32201;DHT22;18701;45.588;5.288;2023-05-28T12:42:53;27.90;99.90
32201;DHT22;18701;45.588;5.288;2023-05-28T12:45:19;27.60;99.90
32201;DHT22;18701;45.588;5.288;2023-05-28T12:47:45;28.00;99.90
32201;DHT22;18701;45.588;5.288;2023-05-28T12:50:10;28.50;99.90
32201;DHT22;18701;45.588;5.288;2023-05-28T12:52:36;28.60;99.80
32201;DHT22;18701;45.588;5.288;2023-05-28T12:55:02;28.50;99.70
32201;DHT22;18701;45.588;5.288;2023-05-28T12:57:28;28.70;99.90
32201;DHT22;18701;45.588;5.288;2023-05-28T12:59:55;28.80;99.80
32201;DHT22;18701;45.588;5.288;2023-05-28T13:02:21;29.00;99.90
32201;DHT22;18701;45.588;5.288;2023-05-28T13:04:47;29.10;99.30
32201;DHT22;18701;45.588;5.288;2023-05-28T13:07:12;29.10;98.80
32201;DHT22;18701;45.588;5.288;2023-05-28T13:09:38;28.90;98.80
32201;DHT22;18701;45.588;5.288;2023-05-28T13:12:04;29.00;98.60
32201;DHT22;18701;45.588;5.288;2023-05-28T13:14:30;29.20;98.50
32201;DHT22;18701;45.588;5.288;2023-05-28T13:16:58;29.40;98.90
32201;DHT22;18701;45.588;5.288;2023-05-28T13:19:25;29.50;98.00
32201;DHT22;18701;45.588;5.288;2023-05-28T13:21:50;29.50;98.40
32201;DHT22;18701;45.588;5.288;2023-05-28T13:24:16;29.40;98.20
32201;DHT22;18701;45.588;5.288;2023-05-28T13:26:42;29.60;99.10
32201;DHT22;18701;45.588;5.288;2023-05-28T13:29:08;29.80;97.90
32201;DHT22;18701;45.588;5.288;2023-05-28T13:31:34;30.10;98.00
32201;DHT22;18701;45.588;5.288;2023-05-28T13:34:00;30.20;96.90
32201;DHT22;18701;45.588;5.288;2023-05-28T13:36:26;30.30;97.50
32201;DHT22;18701;45.588;5.288;2023-05-28T13:38:52;29.80;95.70
32201;DHT22;18701;45.588;5.288;2023-05-28T13:41:18;29.80;96.50
32201;DHT22;18701;45.588;5.288;2023-05-28T13:43:44;30.00;96.50
32201;DHT22;18701;45.588;5.288;2023-05-28T13:46:09;29.70;95.50
32201;DHT22;18701;45.588;5.288;2023-05-28T13:48:35;29.50;95.70
32201;DHT22;18701;45.588;5.288;2023-05-28T13:51:02;29.60;95.20
32201;DHT22;18701;45.588;5.288;2023-05-28T13:53:29;29.90;95.40
32201;DHT22;18701;45.588;5.288;2023-05-28T13:55:55;30.00;95.20
32201;DHT22;18701;45.588;5.288;2023-05-28T13:58:22;29.80;94.90
32201;DHT22;18701;45.588;5.288;2023-05-28T14:00:47;29.90;95.10
32201;DHT22;18701;45.588;5.288;2023-05-28T14:03:13;29.90;94.60
32201;DHT22;18701;45.588;5.288;2023-05-28T14:05:39;30.00;93.50
32201;DHT22;18701;45.588;5.288;2023-05-28T14:08:06;29.80;93.10
32201;DHT22;18701;45.588;5.288;2023-05-28T14:10:32;29.80;93.20
32201;DHT22;18701;45.588;5.288;2023-05-28T14:12:58;30.00;92.80
32201;DHT22;18701;45.588;5.288;2023-05-28T14:15:24;30.10;93.10
32201;DHT22;18701;45.588;5.288;2023-05-28T14:17:50;30.10;93.20
32201;DHT22;18701;45.588;5.288;2023-05-28T14:20:16;30.00;92.40
32201;DHT22;18701;45.588;5.288;2023-05-28T14:22:41;30.00;93.50
32201;DHT22;18701;45.588;5.288;2023-05-28T14:25:12;30.10;92.30
32201;DHT22;18701;45.588;5.288;2023-05-28T14:27:38;29.70;91.90
32201;DHT22;18701;45.588;5.288;2023-05-28T14:30:04;29.80;92.00
32201;DHT22;18701;45.588;5.288;2023-05-28T14:32:30;30.00;92.50
32201;DHT22;18701;45.588;5.288;2023-05-28T14:34:55;30.00;92.00
32201;DHT22;18701;45.588;5.288;2023-05-28T14:37:21;29.70;91.00
32201;DHT22;18701;45.588;5.288;2023-05-28T14:39:47;29.70;92.20
32201;DHT22;18701;45.588;5.288;2023-05-28T14:42:12;29.60;90.80
32201;DHT22;18701;45.588;5.288;2023-05-28T14:44:38;29.80;90.40
32201;DHT22;18701;45.588;5.288;2023-05-28T14:47:04;29.80;90.10
32201;DHT22;18701;45.588;5.288;2023-05-28T14:49:29;29.80;90.00
32201;DHT22;18701;45.588;5.288;2023-05-28T14:51:56;30.00;90.70
32201;DHT22;18701;45.588;5.288;2023-05-28T14:54:22;30.10;90.60
32201;DHT22;18701;45.588;5.288;2023-05-28T14:56:48;30.10;90.00
32201;DHT22;18701;45.588;5.288;2023-05-28T14:59:13;29.70;90.50
32201;DHT22;18701;45.588;5.288;2023-05-28T15:01:39;30.00;90.40
32201;DHT22;18701;45.588;5.288;2023-05-28T15:04:05;30.10;90.20
32201;DHT22;18701;45.588;5.288;2023-05-28T15:06:31;30.20;91.00
32201;DHT22;18701;45.588;5.288;2023-05-28T15:08:58;30.00;91.20
32201;DHT22;18701;45.588;5.288;2023-05-28T15:11:24;29.40;91.60
32201;DHT22;18701;45.588;5.288;2023-05-28T15:13:51;29.60;91.70
32201;DHT22;18701;45.588;5.288;2023-05-28T15:16:17;29.60;91.80
32201;DHT22;18701;45.588;5.288;2023-05-28T15:18:43;29.50;91.70
32201;DHT22;18701;45.588;5.288;2023-05-28T15:21:08;28.80;91.00
32201;DHT22;18701;45.588;5.288;2023-05-28T15:23:35;28.60;91.30
32201;DHT22;18701;45.588;5.288;2023-05-28T15:26:01;28.60;91.50
32201;DHT22;18701;45.588;5.288;2023-05-28T15:28:27;28.50;92.70
32201;DHT22;18701;45.588;5.288;2023-05-28T15:30:54;28.30;92.80
32201;DHT22;18701;45.588;5.288;2023-05-28T15:33:21;28.30;93.30
32201;DHT22;18701;45.588;5.288;2023-05-28T15:35:46;28.30;93.90
32201;DHT22;18701;45.588;5.288;2023-05-28T15:38:12;28.10;92.80